Flight Track Log - Related Links

Times and Time Zones

All times are in EDT time to prevent confusion due to time zone crossing. See the AWE1253 flight status page for this flight to view local times or setup timezone preferences in your user account.

Time Position Orientation Groundspeed Altitude Reporting Facility
EDT Latitude Longitude Course Direction KTS MPH feet Rate Location/Type
Tue 08:56:45 PM 39.8769 -75.2167 226° Southwest 168 193 800  Level FAA TRACON SMA TRACON (SMA)
Tue 08:57:06 PM 39.8828 -75.1961 70° East 174 200 1,600 2,049 Climbing FAA TRACON SMA TRACON (SMA)
Tue 08:57:26 PM 39.8892 -75.1672 74° East 215 247 2,200 2,550 Climbing FAA TRACON SMA TRACON (SMA)
Tue 08:57:46 PM 39.8953 -75.1442 71° East 213 245 3,300 2,615 Climbing FAA TRACON SMA TRACON (SMA)
Tue 08:58:05 PM 39.9019 -75.1206 70° East 220 253 3,900 1,692 Climbing FAA TRACON SMA TRACON (SMA)
Tue 08:58:25 PM 39.9092 -75.0936 71° East 265 305 4,400 1,650 Climbing FAA TRACON SMA TRACON (SMA)
Tue 08:58:45 PM 39.9231 -75.0644 58° Northeast 254 292 5,000 900 Climbing FAA TRACON SMA TRACON (SMA)
Tue 08:59:00 PM 39.8334 -75.7165 270° West  Level FlightAware Approximate
Tue 08:59:05 PM 39.9436 -75.0522 25° Northeast 258 297 5,000  Level FAA TRACON SMA TRACON (SMA)
Tue 08:59:25 PM 39.9667 -75.0556 354° North 270 311 5,000 900 Level FAA TRACON SMA TRACON (SMA)
Tue 08:59:45 PM 39.9936 -75.0636 347° North 261 300 5,600 2,400 Climbing FAA TRACON SMA TRACON (SMA)
Tue 09:00:00 PM 39.7874 -75.8600 232° Southwest  Level FlightAware Approximate
Tue 09:00:05 PM 40.0081 -75.0847 312° West 252 290 6,600  Level FAA TRACON SMA TRACON (SMA)
Tue 09:00:25 PM 40.0108 -75.1131 277° West 266 306 7,500 2,850 Climbing FAA TRACON SMA TRACON (SMA)
Tue 09:00:45 PM 40.0017 -75.1483 251° West 275 316 8,500 2,850 Climbing FAA TRACON SMA TRACON (SMA)
Tue 09:01:00 PM 39.7067 -75.9856 226° Southwest  Level FlightAware Approximate
Tue 09:01:05 PM 39.9933 -75.1775 250° West 283 326 9,400  Level FAA TRACON SMA TRACON (SMA)
Tue 09:01:25 PM 39.9844 -75.2153 253° West 286 329 10,000 900 Climbing FAA TRACON SMA TRACON (SMA)
Tue 09:01:45 PM 39.9772 -75.2453 253° West 285 328 10,000  Level FAA TRACON SMA TRACON (SMA)
Tue 09:02:06 PM 39.9703 -75.2753 253° West 284 327 10,000  Level FAA TRACON SMA TRACON (SMA)
Tue 09:02:26 PM 39.9617 -75.3128 253° West 282 325 10,000  Level FAA TRACON SMA TRACON (SMA)
Tue 09:02:46 PM 39.9542 -75.3422 252° West 281 323 10,000  Level FAA TRACON SMA TRACON (SMA)
Tue 09:03:06 PM 39.9467 -75.3714 251° West 281 323 10,000  Level FAA TRACON SMA TRACON (SMA)
Tue 09:03:26 PM 39.9375 -75.4075 252° West 281 323 10,000  Level FAA TRACON SMA TRACON (SMA)
Tue 09:03:46 PM 39.9292 -75.4408 252° West 303 349 10,000  Level FAA TRACON SMA TRACON (SMA)
Tue 09:04:06 PM 39.9189 -75.4814 252° West 304 350 10,000  Level FAA TRACON SMA TRACON (SMA)
Tue 09:04:26 PM 39.9106 -75.5133 251° West 307 353 10,000  Level FAA TRACON SMA TRACON (SMA)
Tue 09:04:46 PM 39.9025 -75.5458 252° West 306 352 10,000  Level FAA TRACON SMA TRACON (SMA)
Tue 09:05:06 PM 39.8936 -75.5839 253° West 306 352 10,000 150 Level FAA TRACON SMA TRACON (SMA)
Tue 09:05:26 PM 39.8844 -75.6172 250° West 306 352 10,100 750 Climbing FAA TRACON SMA TRACON (SMA)
Tue 09:05:46 PM 39.8756 -75.6511 251° West 309 356 10,500 1,650 Climbing FAA TRACON SMA TRACON (SMA)
Tue 09:06:06 PM 39.8644 -75.6953 252° West 340 391 11,200 2,100 Climbing FAA TRACON SMA TRACON (SMA)
Tue 09:06:26 PM 39.8544 -75.7328 251° West 352 405 11,900 2,250 Climbing FAA TRACON SMA TRACON (SMA)
Tue 09:06:46 PM 39.8447 -75.7697 251° West 353 406 12,700 3,000 Climbing FAA TRACON SMA TRACON (SMA)
Tue 09:07:06 PM 39.8272 -75.8117 241° Southwest 362 417 13,900 3,450 Climbing FAA TRACON SMA TRACON (SMA)
Tue 09:07:26 PM 39.8078 -75.8458 233° Southwest 363 418 15,000 3,000 Climbing FAA TRACON SMA TRACON (SMA)
Tue 09:07:46 PM 39.7886 -75.8769 231° Southwest 359 413 15,900 2,850 Climbing FAA TRACON SMA TRACON (SMA)
Tue 09:08:06 PM 39.7636 -75.9164 231° Southwest 364 419 16,900 2,400 Climbing FAA TRACON SMA TRACON (SMA)
Tue 09:08:26 PM 39.7436 -75.9481 231° Southwest 369 425 17,500 1,650 Climbing FAA TRACON SMA TRACON (SMA)
Tue 09:08:46 PM 39.7244 -75.9806 233° Southwest 376 433 18,000 750 Climbing FAA TRACON SMA TRACON (SMA)
Tue 09:09:06 PM 39.7244 -75.9806 38° Northeast 376 433 18,000 2,143 Level FAA TRACON SMA TRACON (SMA)
Tue 09:11:34 PM 39.5242 -76.2964 231° Southwest 422 486 24,000 2,192 Climbing Washington Center
Tue 09:12:34 PM 39.4461 -76.4167 230° Southwest 428 493 25,600 2,000 Climbing Washington Center
Tue 09:13:34 PM 39.3578 -76.5497 229° Southwest 439 505 28,000 2,300 Climbing Washington Center
Tue 09:14:34 PM 39.2794 -76.6694 230° Southwest 439 505 30,200 2,000 Climbing Washington Center
Tue 09:15:34 PM 39.2075 -76.7836 231° Southwest 434 499 32,000 1,350 Climbing Washington Center
Tue 09:16:34 PM 39.1336 -76.9000 231° Southwest 428 493 32,900 1,000 Climbing Washington Center
Tue 09:17:34 PM 39.0592 -77.0136 230° Southwest 428 493 34,000 550 Climbing Washington Center
Tue 09:18:34 PM 38.9703 -77.1189 223° Southwest 428 493 34,000  Level Washington Center
Tue 09:19:34 PM 38.8772 -77.2208 220° Southwest 434 499 34,000  Level Washington Center
Tue 09:20:34 PM 38.7883 -77.3200 221° Southwest 434 499 34,000  Level Washington Center
Tue 09:21:34 PM 38.6953 -77.4189 220° Southwest 434 499 34,000  Level Washington Center
Tue 09:22:34 PM 38.6039 -77.5178 220° Southwest 434 499 34,000  Level Washington Center
Tue 09:23:34 PM 38.5319 -77.5981 221° Southwest 434 499 34,000  Level Washington Center
Tue 09:24:34 PM 38.4361 -77.7017 220° Southwest 434 499 34,000  Level Washington Center
Tue 09:25:34 PM 38.3447 -77.7994 220° Southwest 434 499 34,000  Level Washington Center
Tue 09:26:34 PM 38.2553 -77.8975 221° Southwest 434 499 34,000  Level Washington Center
Tue 09:27:34 PM 38.1658 -77.9950 221° Southwest 434 499 34,000  Level Washington Center
Tue 09:28:34 PM 38.0764 -78.0897 220° Southwest 434 499 34,000  Level Washington Center
Tue 09:29:34 PM 37.9803 -78.1919 220° Southwest 429 494 34,000  Level Washington Center
Tue 09:30:34 PM 37.8867 -78.2781 216° Southwest 429 494 34,000  Level Washington Center
Tue 09:31:34 PM 37.7992 -78.3619 217° Southwest 429 494 34,000  Level Washington Center
Tue 09:32:34 PM 37.7033 -78.4503 216° Southwest 429 494 34,000  Level Washington Center
Tue 09:33:34 PM 37.6072 -78.5408 217° Southwest 429 494 34,000  Level Washington Center
Tue 09:34:34 PM 37.5133 -78.6289 217° Southwest 429 494 34,000  Level Washington Center
Tue 09:35:34 PM 37.4064 -78.7267 216° Southwest 429 494 34,000  Level Washington Center
Tue 09:36:34 PM 37.3103 -78.8167 217° Southwest 434 499 34,000  Level Washington Center
Tue 09:37:34 PM 37.2139 -78.9067 217° Southwest 434 499 34,000  Level Washington Center
Tue 09:38:34 PM 37.1175 -78.9961 217° Southwest 439 505 34,000  Level Washington Center
Tue 09:39:34 PM 37.0211 -79.0856 217° Southwest 439 505 34,000  Level Washington Center
Tue 09:40:34 PM 36.9353 -79.1647 216° Southwest 439 505 34,000  Level Washington Center
Tue 09:43:29 PM 36.6475 -79.4281 216° Southwest 412 474 34,000  Level Atlanta Center
Tue 09:44:29 PM 36.5606 -79.5053 216° Southwest 430 495 34,000  Level Atlanta Center
Tue 09:45:29 PM 36.4658 -79.5933 217° Southwest 430 495 34,000  Level Atlanta Center
Tue 09:46:29 PM 36.3708 -79.6786 216° Southwest 430 495 34,000  Level Atlanta Center
Tue 09:47:29 PM 36.2758 -79.7636 216° Southwest 424 488 34,000  Level Atlanta Center
Tue 09:48:29 PM 36.1706 -79.8567 216° Southwest 424 488 34,000  Level Atlanta Center
Tue 09:49:29 PM 36.0775 -79.9411 216° Southwest 424 488 34,000  Level Atlanta Center
Tue 09:50:29 PM 35.9733 -80.0106 208° Southwest 424 488 34,000  Level Atlanta Center
Tue 09:51:29 PM 35.8667 -80.0644 202° Southwest 424 488 34,000  Level Atlanta Center
Tue 09:52:29 PM 35.7681 -80.1128 202° Southwest 429 494 34,000  Level Atlanta Center
Tue 09:53:29 PM 35.6492 -80.1772 204° Southwest 429 494 34,000  Level Atlanta Center
Tue 09:54:29 PM 35.5381 -80.2308 201° Southwest 429 494 34,000  Level Atlanta Center
Tue 09:55:29 PM 35.4436 -80.2786 202° Southwest 429 494 34,000  Level Atlanta Center
Tue 09:56:29 PM 35.3328 -80.3347 202° Southwest 424 488 34,000  Level Atlanta Center
Tue 09:57:29 PM 35.2278 -80.3878 202° Southwest 424 488 34,000  Level Atlanta Center
Tue 09:58:29 PM 35.1169 -80.4433 202° Southwest 430 495 34,000  Level Atlanta Center
Tue 10:00:57 PM 34.8436 -80.5781 202° Southwest 410 472 34,000  Level Jacksonville Center
Tue 10:01:57 PM 34.7403 -80.6264 201° Southwest 403 464 34,000  Level Jacksonville Center
Tue 10:02:57 PM 34.6347 -80.6797 203° Southwest 403 464 34,000  Level Jacksonville Center
Tue 10:03:57 PM 34.5192 -80.7406 203° Southwest 426 490 34,000  Level Jacksonville Center
Tue 10:04:57 PM 34.4239 -80.7831 200° South 431 496 34,000  Level Jacksonville Center
Tue 10:05:57 PM 34.3164 -80.8386 203° Southwest 423 487 34,000  Level Jacksonville Center
Tue 10:06:57 PM 34.2064 -80.8889 201° Southwest 407 468 34,000  Level Jacksonville Center
Tue 10:07:57 PM 34.0989 -80.9414 202° Southwest 407 468 34,000  Level Jacksonville Center
Tue 10:08:57 PM 33.9911 -80.9914 201° Southwest 412 474 34,000  Level Jacksonville Center
Tue 10:09:57 PM 33.8856 -81.0414 201° Southwest 412 474 34,000  Level Jacksonville Center
Tue 10:10:57 PM 33.7756 -81.0961 202° Southwest 412 474 34,000  Level Jacksonville Center
Tue 10:11:57 PM 33.6658 -81.1508 203° Southwest 422 486 34,000  Level Jacksonville Center
Tue 10:12:57 PM 33.5581 -81.2053 203° Southwest 422 486 34,000  Level Jacksonville Center
Tue 10:13:57 PM 33.4503 -81.2569 202° Southwest 427 491 34,000  Level Jacksonville Center
Tue 10:14:57 PM 33.3403 -81.3114 202° Southwest 427 491 34,000  Level Jacksonville Center
Tue 10:15:57 PM 33.2322 -81.3628 202° Southwest 427 491 34,000  Level Jacksonville Center
Tue 10:16:57 PM 33.1225 -81.4192 203° Southwest 427 491 34,000  Level Jacksonville Center
Tue 10:17:57 PM 33.0144 -81.4706 202° Southwest 427 491 34,000  Level Jacksonville Center
Tue 10:18:57 PM 32.9064 -81.5219 202° Southwest 432 497 34,000  Level Jacksonville Center
Tue 10:19:57 PM 32.8006 -81.5753 203° Southwest 432 497 34,000  Level Jacksonville Center
Tue 10:20:57 PM 32.6925 -81.6286 203° Southwest 432 497 34,000  Level Jacksonville Center
Tue 10:21:57 PM 32.5803 -81.6819 202° Southwest 432 497 34,000  Level Jacksonville Center
Tue 10:22:57 PM 32.4828 -81.7303 203° Southwest 432 497 34,000  Level Jacksonville Center
Tue 10:23:57 PM 32.3600 -81.7858 201° Southwest 432 497 34,000  Level Jacksonville Center
Tue 10:24:57 PM 32.2497 -81.8386 202° Southwest 432 497 34,000  Level Jacksonville Center
Tue 10:25:57 PM 32.1481 -81.8867 202° Southwest 432 497 34,000  Level Jacksonville Center
Tue 10:26:57 PM 32.0272 -81.9442 202° Southwest 432 497 34,000  Level Jacksonville Center
Tue 10:27:57 PM 31.9233 -81.9894 200° South 437 503 34,000  Level Jacksonville Center
Tue 10:28:57 PM 31.8003 -82.0394 199° South 437 503 34,000  Level Jacksonville Center
Tue 10:29:57 PM 31.6858 -82.0844 199° South 437 503 34,000  Level Jacksonville Center
Tue 10:30:57 PM 31.5714 -82.1294 199° South 432 497 34,000  Level Jacksonville Center
Tue 10:31:57 PM 31.4461 -82.1450 186° South 444 511 34,000  Level Jacksonville Center
Tue 10:32:56 PM 31.3231 -82.1581 185° South 444 511 34,000  Level Jacksonville Center
Tue 10:33:57 PM 31.2000 -82.1711 185° South 444 511 34,000  Level Jacksonville Center
Tue 10:34:57 PM 31.0767 -82.1842 185° South 444 511 34,000  Level Jacksonville Center
Tue 10:35:57 PM 30.9558 -82.2022 187° South 444 511 34,000  Level Jacksonville Center
Tue 10:36:57 PM 30.8306 -82.2175 186° South 444 511 34,000  Level Jacksonville Center
Tue 10:37:57 PM 30.7200 -82.2306 186° South 449 517 34,000  Level Jacksonville Center
Tue 10:38:57 PM 30.5969 -82.2433 185° South 449 517 34,000  Level Jacksonville Center
Tue 10:39:57 PM 30.4717 -82.2394 178° South 444 511 34,000  Level Jacksonville Center
Tue 10:40:57 PM 30.3464 -82.2428 181° South 444 511 34,000  Level Jacksonville Center
Tue 10:41:57 PM 30.2231 -82.2411 179° South 449 517 34,000  Level Jacksonville Center
Tue 10:42:57 PM 30.0958 -82.2419 180° South 449 517 34,000  Level Jacksonville Center
Tue 10:43:57 PM 29.9706 -82.2500 183° South 454 522 34,000  Level Jacksonville Center
Tue 10:44:57 PM 29.8453 -82.2508 180° South 454 522 34,000 -450 Level Jacksonville Center
Tue 10:45:57 PM 29.7200 -82.2469 178° South 454 522 33,100 -900 Descending Jacksonville Center
Tue 10:46:57 PM 29.5925 -82.2478 180° South 459 528 32,200 -1,450 Descending Jacksonville Center
Tue 10:47:57 PM 29.4550 -82.2511 181° South 459 528 30,200 -2,750 Descending Jacksonville Center
Tue 10:48:57 PM 29.3275 -82.2519 180° South 459 528 26,700 -3,150 Descending Jacksonville Center
Tue 10:49:57 PM 29.2022 -82.2525 180° South 459 528 23,900 -2,750 Descending Jacksonville Center
Tue 10:50:57 PM 29.0833 -82.2533 180° South 447 514 21,200 -2,650 Descending Jacksonville Center
Tue 10:51:57 PM 28.9706 -82.2564 181° South 426 490 18,600 -2,756 Descending Jacksonville Center
Tue 10:53:49 PM 28.7667 -82.2667 183° South 397 457 13,300 -2,581 Descending Tampa TRACON
Tue 10:54:49 PM 28.6667 -82.2500 172° South 384 442 11,200 -1,158 Descending Tampa TRACON
Tue 10:55:43 PM 28.5667 -82.2500 180° South 375 432 11,100 -111 Descending Tampa TRACON
Tue 10:56:37 PM 28.4667 -82.2667 188° South 363 418 11,000 -550 Descending Tampa TRACON
Tue 10:57:43 PM 28.3833 -82.2833 190° South 306 352 10,000 -1,238 Descending Tampa TRACON
Tue 10:58:43 PM 28.3000 -82.3167 199° South 301 346 8,400 -1,571 Descending Tampa TRACON
Tue 10:59:49 PM 28.2167 -82.3500 199° South 293 337 6,700 -1,476 Descending Tampa TRACON
Tue 11:00:49 PM 28.1333 -82.3667 190° South 279 321 5,300 -850 Descending Tampa TRACON
Tue 11:01:49 PM 28.0667 -82.3833 192° South 269 310 5,000 -150 Descending Tampa TRACON
Tue 11:02:49 PM 28.0000 -82.4167 204° Southwest 267 307 5,000 -526 Level Tampa TRACON
Tue 11:03:43 PM 27.9333 -82.4167 180° South 264 304 4,000 -1,300 Descending Tampa TRACON
Tue 11:04:49 PM 27.8500 -82.4333 190° South 261 300 2,400 -909 Descending Tampa TRACON
Tue 11:05:55 PM 27.8333 -82.5000 254° West 236 272 2,000 -200 Descending Tampa TRACON
Tue 11:06:49 PM 27.8667 -82.5500 307° West 213 245 2,000 -474 Level Tampa TRACON
Tue 11:07:49 PM 27.9167 -82.5500 360° North 183 211 1,100 -843 Descending Tampa TRACON
Tue 11:08:50 PM 27.9500 -82.5500 360° North 153 176 300 -787 Descending Tampa TRACON
Tue 11:10:00 PM 27.9667 -82.5167 350° North  Level FlightAware Approximate

Login

Don't have an account? Register now (free) for customized features, flight alerts, and more!